TimeEST,TemperatureF,Dew PointF,Humidity,Sea Level PressureIn,VisibilityMPH,Wind Direction,Wind SpeedMPH,Gust SpeedMPH,PrecipitationIn,Events,Conditions,WindDirDegrees,DateUTC
12:52 AM,19.9,17.1,89,30.18,10.0,North,3.5,-,N/A,,Clear,10,2012-11-07 05:52:00
1:52 AM,21.0,17.1,85,30.18,10.0,Calm,Calm,-,N/A,,Clear,0,2012-11-07 06:52:00
2:52 AM,23.0,19.0,85,30.18,10.0,Calm,Calm,-,N/A,,Partly Cloudy,0,2012-11-07 07:52:00
3:52 AM,25.0,19.9,81,30.15,10.0,NNW,4.6,-,N/A,,Overcast,330,2012-11-07 08:52:00
4:52 AM,28.9,19.0,67,30.12,10.0,North,6.9,-,N/A,,Overcast,350,2012-11-07 09:52:00
6:52 AM,30.9,18.0,59,30.11,10.0,NNE,9.2,-,N/A,,Overcast,20,2012-11-07 11:52:00
7:52 AM,32.0,19.0,59,30.11,10.0,North,8.1,-,N/A,,Overcast,360,2012-11-07 12:52:00
8:49 AM,33.8,19.4,56,30.06,10.0,North,10.4,19.6,N/A,,Overcast,10,2012-11-07 13:49:00
8:52 AM,33.1,19.0,56,30.09,10.0,NNE,12.7,-,N/A,,Overcast,20,2012-11-07 13:52:00
9:52 AM,33.1,19.0,56,30.07,10.0,NNE,12.7,25.3,N/A,,Overcast,20,2012-11-07 14:52:00
10:52 AM,34.0,19.0,54,30.06,10.0,NNE,17.3,24.2,N/A,,Overcast,30,2012-11-07 15:52:00
11:14 AM,33.8,19.4,56,30.03,10.0,NNE,12.7,21.9,N/A,,Scattered Clouds,20,2012-11-07 16:14:00
11:52 AM,33.1,17.1,52,30.02,10.0,NNE,16.1,23.0,N/A,,Scattered Clouds,20,2012-11-07 16:52:00
12:52 PM,34.0,14.0,44,29.99,10.0,NNE,11.5,23.0,N/A,,Overcast,30,2012-11-07 17:52:00
1:52 PM,33.1,12.9,43,29.98,10.0,NNE,10.4,20.7,N/A,,Overcast,20,2012-11-07 18:52:00
2:52 PM,34.0,10.9,38,29.96,10.0,NNE,13.8,19.6,N/A,,Overcast,30,2012-11-07 19:52:00
3:52 PM,34.0,10.9,38,29.96,10.0,North,10.4,-,N/A,,Overcast,360,2012-11-07 20:52:00
4:52 PM,35.1,10.0,35,29.94,10.0,North,12.7,-,N/A,,Overcast,10,2012-11-07 21:52:00
5:52 PM,36.0,8.1,31,29.93,10.0,NNE,16.1,24.2,N/A,,Overcast,20,2012-11-07 22:52:00
6:52 PM,36.0,9.0,33,29.93,10.0,North,11.5,-,N/A,,Overcast,10,2012-11-07 23:52:00
7:52 PM,35.1,10.0,35,29.92,10.0,North,9.2,18.4,N/A,,Overcast,350,2012-11-08 00:52:00
8:45 PM,35.6,10.4,35,29.88,10.0,NNE,12.7,19.6,N/A,,Overcast,30,2012-11-08 01:45:00
8:52 PM,36.0,12.0,37,29.90,10.0,NE,16.1,33.4,N/A,,Overcast,40,2012-11-08 01:52:00
9:52 PM,35.1,18.0,50,29.88,9.0,NNE,15.0,28.8,0.00,,Overcast,30,2012-11-08 02:52:00
10:52 PM,35.1,19.0,52,29.85,6.0,NNE,25.3,34.5,0.00,Snow,Light Snow,20,2012-11-08 03:52:00
11:25 PM,33.8,23.0,65,29.82,8.0,North,16.1,23.0,0.00,Snow,Light Snow,10,2012-11-08 04:25:00
11:52 PM,35.1,19.9,54,29.83,10.0,NNE,13.8,21.9,0.00,,Overcast,20,2012-11-08 04:52:00